Time;durP1;ratioP1;P1;durP2;ratioP2;P2;SDS_P1;SDS_P2;PMS_P1;PMS_P2;Temp;Humidity;BMP_temperature;BMP_pressure;BME280_temperature;BME280_humidity;BME280_pressure;Samples;Min_cycle;Max_cycle;Signal;HPM_P1;HPM_P2
2023/01/05 00:02:54;;;;;;;4.80;3.30;;;;;;;6.69;100.00;98222.92;214187;1310;26371;-78
2023/01/05 00:07:55;;;;;;;6.20;2.70;;;;;;;6.73;100.00;98217.74;214034;1310;22490;-78
2023/01/05 00:23:43;;;;;;;3.50;2.80;;;;;;;6.95;100.00;98191.70;214144;1310;23395;-78
2023/01/05 00:28:45;;;;;;;4.00;2.50;;;;;;;7.03;100.00;98190.53;213972;1310;22505;-78
2023/01/05 00:33:47;;;;;;;3.40;2.80;;;;;;;7.10;100.00;98187.86;214202;1305;25458;-77
2023/01/05 00:38:49;;;;;;;3.60;2.40;;;;;;;7.15;100.00;98192.02;214038;1310;22531;-78
2023/01/05 00:43:50;;;;;;;4.50;2.70;;;;;;;7.20;100.00;98177.64;213991;1310;25583;-77
2023/01/05 00:48:52;;;;;;;3.00;2.50;;;;;;;7.23;100.00;98167.13;214081;1310;22468;-77
2023/01/05 00:53:54;;;;;;;4.10;3.00;;;;;;;7.25;100.00;98174.20;214092;1310;25385;-76
2023/01/05 00:58:56;;;;;;;4.20;2.20;;;;;;;7.25;100.00;98165.35;214033;1310;22623;-78
2023/01/05 01:03:58;;;;;;;3.90;2.90;;;;;;;7.29;100.00;98158.01;214215;1310;22501;-75
2023/01/05 01:09:00;;;;;;;3.00;2.60;;;;;;;7.32;100.00;98148.05;214149;1310;22504;-78
2023/01/05 01:14:04;;;;;;;3.80;3.10;;;;;;;7.37;100.00;98141.32;214055;1310;22735;-78
2023/01/05 01:19:06;;;;;;;4.20;2.80;;;;;;;7.41;100.00;98136.73;214070;1310;22481;-77
2023/01/05 01:24:13;;;;;;;2.50;2.30;;;;;;;7.45;100.00;98124.38;213952;1311;24282;-78
2023/01/05 01:29:18;;;;;;;4.90;2.30;;;;;;;7.49;100.00;98114.59;214172;1310;22528;-78
2023/01/05 01:34:20;;;;;;;3.60;2.30;;;;;;;7.51;100.00;98105.01;213931;1302;22482;-78
2023/01/05 01:39:22;;;;;;;2.80;1.90;;;;;;;7.55;100.00;98092.50;214075;1310;22483;-78
2023/01/05 01:44:54;;;;;;;3.10;1.80;;;;;;;7.60;100.00;98087.84;213956;1310;22514;-77
2023/01/05 01:50:19;;;;;;;3.50;2.30;;;;;;;7.71;100.00;98067.83;214191;1310;22461;-78
2023/01/05 01:55:21;;;;;;;4.50;1.90;;;;;;;7.80;100.00;98062.44;214070;1310;23108;-78
2023/01/05 02:00:24;;;;;;;2.50;1.70;;;;;;;7.85;100.00;98064.77;214057;1310;22480;-77
2023/01/05 02:05:31;;;;;;;2.90;1.50;;;;;;;7.91;100.00;98060.67;214003;1310;22468;-77
2023/01/05 02:10:39;;;;;;;2.40;1.60;;;;;;;7.95;99.95;98047.83;214029;1310;23111;-78
2023/01/05 02:16:02;;;;;;;4.00;1.60;;;;;;;7.98;99.76;98026.56;214166;1310;24306;-78
2023/01/05 02:21:16;;;;;;;2.20;1.40;;;;;;;8.00;99.60;98026.27;213979;1310;22465;-78
2023/01/05 02:26:49;;;;;;;1.70;1.30;;;;;;;8.03;99.52;98018.69;214141;1310;22931;-78
2023/01/05 02:32:18;;;;;;;2.50;1.50;;;;;;;8.03;99.41;98021.19;214135;1306;22689;-76
2023/01/05 02:37:39;;;;;;;2.50;1.40;;;;;;;8.06;99.13;98015.02;214057;1310;24071;-77
2023/01/05 02:42:44;;;;;;;1.60;1.10;;;;;;;8.09;99.09;98012.15;213889;1310;22599;-77
2023/01/05 02:47:47;;;;;;;1.50;1.10;;;;;;;8.10;98.84;98009.84;214044;1310;22615;-78
2023/01/05 02:53:00;;;;;;;1.80;1.40;;;;;;;8.13;98.65;98006.48;213887;1310;22476;-74
2023/01/05 02:58:31;;;;;;;1.80;1.40;;;;;;;8.15;98.46;97999.68;214172;1310;22490;-79
2023/01/05 03:03:45;;;;;;;1.80;1.10;;;;;;;8.19;98.28;97993.63;214180;1310;25278;-76
2023/01/05 03:08:54;;;;;;;1.90;1.10;;;;;;;8.25;97.98;97997.82;214103;1308;22556;-77
2023/01/05 03:14:24;;;;;;;1.60;1.40;;;;;;;8.28;97.79;97999.48;213954;1310;22509;-78
2023/01/05 03:19:35;;;;;;;1.40;1.20;;;;;;;8.31;97.61;97999.58;214113;1310;25275;-79
2023/01/05 03:35:33;;;;;;;1.20;1.00;;;;;;;8.39;97.06;97992.46;214140;1310;22468;-78
2023/01/05 03:40:38;;;;;;;1.40;0.90;;;;;;;8.38;97.07;97981.05;213911;1305;26491;-77
2023/01/05 03:45:50;;;;;;;2.80;1.00;;;;;;;8.33;97.30;97975.21;214262;1310;22544;-79
2023/01/05 03:50:54;;;;;;;0.80;0.80;;;;;;;8.29;97.73;97970.80;213924;1310;25305;-78
2023/01/05 03:55:57;;;;;;;1.30;1.00;;;;;;;8.26;97.77;97985.15;213906;1310;24103;-78
2023/01/05 04:00:59;;;;;;;1.10;0.90;;;;;;;8.26;97.96;97987.50;214174;1310;23230;-78
2023/01/05 04:06:02;;;;;;;2.40;1.10;;;;;;;8.23;98.12;97983.63;214004;1310;25382;-77
2023/01/05 04:11:11;;;;;;;1.50;1.10;;;;;;;8.20;98.08;97988.39;214143;1310;25332;-76
2023/01/05 04:16:13;;;;;;;1.40;0.90;;;;;;;8.20;98.27;97987.70;213837;1310;22466;-77
2023/01/05 04:21:15;;;;;;;1.50;1.00;;;;;;;8.18;98.42;97978.52;214007;1310;25342;-78
2023/01/05 04:26:18;;;;;;;1.50;0.90;;;;;;;8.16;98.72;97961.93;213895;1307;22645;-79
2023/01/05 04:31:22;;;;;;;1.30;0.90;;;;;;;8.15;98.85;97961.16;214130;1310;23743;-77
2023/01/05 04:36:24;;;;;;;1.50;1.00;;;;;;;8.13;98.80;97974.95;214092;1310;23167;-78
2023/01/05 04:41:28;;;;;;;3.00;1.00;;;;;;;8.14;98.85;97975.11;214070;1310;22458;-79
2023/01/05 04:46:31;;;;;;;1.40;0.70;;;;;;;8.15;98.82;97980.15;214043;1310;25388;-75
2023/01/05 04:51:34;;;;;;;2.40;0.70;;;;;;;8.15;98.88;97974.98;214002;1310;25267;-77
2023/01/05 04:56:36;;;;;;;1.30;0.70;;;;;;;8.17;98.78;97981.12;214023;1310;22552;-78
2023/01/05 05:01:39;;;;;;;1.40;0.80;;;;;;;8.19;98.74;97975.34;214037;1310;24067;-79
2023/01/05 05:06:43;;;;;;;0.90;0.60;;;;;;;8.20;98.75;97976.75;214071;1310;25287;-77
2023/01/05 05:11:48;;;;;;;1.30;0.60;;;;;;;8.21;98.62;97974.13;214038;1310;24227;-77
2023/01/05 05:16:54;;;;;;;1.80;0.70;;;;;;;8.19;98.85;97967.48;214148;1306;22473;-77
2023/01/05 05:21:56;;;;;;;1.90;0.80;;;;;;;8.20;99.23;97980.11;213916;1310;23743;-78
2023/01/05 05:27:00;;;;;;;3.50;1.00;;;;;;;8.14;99.52;97977.51;213945;1310;25330;-78
2023/01/05 05:32:01;;;;;;;1.90;1.00;;;;;;;7.99;99.94;97966.96;214253;1295;22603;-79
2023/01/05 05:37:03;;;;;;;0.90;0.80;;;;;;;7.83;100.00;97967.78;213964;1310;24257;-77
2023/01/05 05:42:05;;;;;;;1.10;1.00;;;;;;;7.73;100.00;97959.56;214185;1310;25321;-77
2023/01/05 05:47:07;;;;;;;0.90;0.90;;;;;;;7.63;100.00;97958.11;214078;1310;22529;-79
2023/01/05 05:52:09;;;;;;;1.60;0.70;;;;;;;7.50;100.00;97952.73;214092;1306;22633;-81
2023/01/05 05:57:11;;;;;;;1.00;0.70;;;;;;;7.40;100.00;97942.49;214249;1310;22634;-77
2023/01/05 06:02:12;;;;;;;1.20;0.90;;;;;;;7.33;100.00;97942.53;214173;1311;25285;-79
2023/01/05 06:07:14;;;;;;;1.30;1.00;;;;;;;7.30;100.00;97946.19;214079;1310;22488;-77
2023/01/05 06:12:16;;;;;;;1.60;1.20;;;;;;;7.31;100.00;97943.35;214035;1312;24370;-79
2023/01/05 06:17:18;;;;;;;1.70;1.00;;;;;;;7.32;100.00;97946.32;214201;1311;22505;-79
2023/01/05 06:22:19;;;;;;;2.10;1.30;;;;;;;7.33;100.00;97955.05;214203;1311;22595;-79
2023/01/05 06:27:21;;;;;;;1.70;0.80;;;;;;;7.35;100.00;97974.05;214119;1311;22479;-79
2023/01/05 06:32:23;;;;;;;2.20;1.10;;;;;;;7.40;100.00;97980.59;214100;1305;22472;-77
2023/01/05 06:37:25;;;;;;;2.60;1.30;;;;;;;7.43;100.00;97982.95;214182;1284;22557;-75
2023/01/05 06:42:27;;;;;;;5.30;1.90;;;;;;;7.45;100.00;98010.15;214514;1281;25482;-77
2023/01/05 06:47:28;;;;;;;3.40;1.60;;;;;;;7.48;100.00;98034.67;214185;1281;23789;-76
2023/01/05 06:52:35;;;;;;;3.20;1.30;;;;;;;7.51;100.00;98059.23;214598;1285;22477;-77
2023/01/05 06:57:37;;;;;;;2.10;1.10;;;;;;;7.46;100.00;98057.89;214601;1281;22478;-75
2023/01/05 07:02:39;;;;;;;1.90;0.80;;;;;;;7.35;100.00;98046.41;214427;1281;138708;-78
2023/01/05 07:07:41;;;;;;;3.90;0.80;;;;;;;7.24;100.00;98050.05;214935;1281;24315;-77
2023/01/05 07:12:42;;;;;;;4.60;0.60;;;;;;;7.13;100.00;98059.73;214744;1283;138561;-80
2023/01/05 07:17:44;;;;;;;1.20;0.40;;;;;;;7.01;100.00;98075.11;214448;1281;138155;-79
2023/01/05 07:22:46;;;;;;;2.50;0.40;;;;;;;6.88;100.00;98092.98;214355;1281;138462;-82
2023/01/05 07:27:51;;;;;;;0.50;0.40;;;;;;;6.74;100.00;98089.74;214343;1287;138468;-77
2023/01/05 07:32:57;;;;;;;1.40;0.50;;;;;;;6.65;100.00;98062.36;214592;1281;138628;-77
2023/01/05 07:37:59;;;;;;;1.10;0.40;;;;;;;6.59;100.00;98057.88;214664;1285;138524;-76
2023/01/05 07:43:01;;;;;;;0.90;0.50;;;;;;;6.56;100.00;98054.66;214490;1281;138514;-76
2023/01/05 07:48:03;;;;;;;0.50;0.40;;;;;;;6.57;100.00;98054.60;214533;1287;23743;-75
2023/01/05 07:53:04;;;;;;;1.00;0.80;;;;;;;6.59;100.00;98061.51;214545;1281;138129;-75
2023/01/05 07:58:06;;;;;;;1.50;0.90;;;;;;;6.59;100.00;98066.13;214415;1285;139477;-75
2023/01/05 08:03:08;;;;;;;2.50;1.80;;;;;;;6.58;100.00;98070.14;214479;1284;138762;-75
2023/01/05 08:08:11;;;;;;;1.70;1.00;;;;;;;6.60;100.00;98074.21;214288;1288;154040;-76
2023/01/05 08:18:33;;;;;;;3.00;1.00;;;;;;;6.58;100.00;98069.75;214402;1284;139203;-76
2023/01/05 08:23:36;;;;;;;1.70;0.90;;;;;;;6.60;100.00;98068.77;214688;1281;22500;-76
2023/01/05 08:28:39;;;;;;;1.60;0.70;;;;;;;6.65;100.00;98063.26;214476;1288;138135;-76
2023/01/05 08:33:41;;;;;;;2.80;1.10;;;;;;;6.71;100.00;98068.48;214431;1287;138788;-77
2023/01/05 08:38:47;;;;;;;1.50;1.20;;;;;;;6.86;100.00;98063.40;214604;1281;138361;-77
2023/01/05 08:43:54;;;;;;;2.20;1.10;;;;;;;7.06;100.00;98060.30;214611;1288;138917;-76
2023/01/05 08:48:59;;;;;;;1.20;0.70;;;;;;;7.20;100.00;98064.91;214536;1293;138510;-76
2023/01/05 08:54:01;;;;;;;2.50;0.90;;;;;;;7.29;100.00;98069.77;214602;1281;24249;-75
2023/01/05 08:59:02;;;;;;;2.70;0.70;;;;;;;7.37;100.00;98069.31;214347;1289;138103;-76
2023/01/05 09:04:04;;;;;;;1.30;0.90;;;;;;;7.43;100.00;98071.20;214543;1287;138278;-78
2023/01/05 09:09:06;;;;;;;1.90;0.80;;;;;;;7.46;100.00;98070.05;215074;1295;138668;-75
2023/01/05 09:14:13;;;;;;;2.00;0.80;;;;;;;7.53;100.00;98071.19;214337;1288;138482;-76
2023/01/05 09:19:15;;;;;;;2.50;0.80;;;;;;;7.59;100.00;98064.57;214462;1313;138870;-75
2023/01/05 09:24:17;;;;;;;3.00;1.10;;;;;;;7.58;100.00;98065.81;214274;1311;22557;-76
2023/01/05 09:29:19;;;;;;;2.40;1.50;;;;;;;7.57;100.00;98064.66;214443;1294;137994;-75
2023/01/05 09:34:21;;;;;;;4.30;2.00;;;;;;;7.65;100.00;98071.42;214335;1298;138464;-75
2023/01/05 09:39:23;;;;;;;4.00;1.80;;;;;;;7.74;100.00;98068.69;214069;1293;138440;-75
2023/01/05 09:44:37;;;;;;;4.60;2.40;;;;;;;7.82;100.00;98073.92;214303;1291;138530;-75
2023/01/05 09:49:40;;;;;;;3.00;1.20;;;;;;;7.94;100.00;98065.08;214542;1287;139148;-75
2023/01/05 09:54:42;;;;;;;5.00;1.70;;;;;;;8.05;100.00;98064.71;214124;1284;138460;-75
2023/01/05 09:59:54;;;;;;;1.90;1.50;;;;;;;8.21;100.00;98062.06;214518;1301;22493;-75
2023/01/05 10:04:58;;;;;;;1.30;1.10;;;;;;;8.39;100.00;98069.02;214456;1287;138141;-75
2023/01/05 10:10:08;;;;;;;2.80;1.30;;;;;;;8.65;100.00;98061.34;214274;1284;138767;-75
2023/01/05 10:15:18;;;;;;;2.10;1.20;;;;;;;8.91;100.00;98052.42;214444;1291;138382;-76
2023/01/05 10:20:23;;;;;;;3.00;1.80;;;;;;;9.05;100.00;98050.63;214304;1288;138502;-75
2023/01/05 10:25:46;;;;;;;2.10;1.40;;;;;;;9.17;100.00;98045.20;214435;1288;138866;-76
2023/01/05 10:30:54;;;;;;;2.40;1.50;;;;;;;9.28;100.00;98044.04;214696;1284;138672;-75
2023/01/05 10:36:03;;;;;;;4.10;1.30;;;;;;;9.31;100.00;98041.30;214531;1295;22523;-75
2023/01/05 10:41:34;;;;;;;1.70;1.20;;;;;;;9.27;100.00;98045.34;214227;1311;138489;-74
2023/01/05 10:46:40;;;;;;;2.70;1.10;;;;;;;9.37;100.00;98042.69;214140;1311;138572;-76
2023/01/05 10:51:50;;;;;;;2.10;0.90;;;;;;;9.69;100.00;98036.14;214260;1288;138547;-75
2023/01/05 10:57:36;;;;;;;3.40;1.20;;;;;;;9.87;99.91;98040.20;214294;1285;139221;-75
2023/01/05 11:03:01;;;;;;;3.70;0.90;;;;;;;10.01;99.97;98036.15;214368;1284;138975;-76
2023/01/05 11:08:16;;;;;;;2.90;1.00;;;;;;;10.12;99.94;98029.85;214063;1313;139119;-76
2023/01/05 11:13:27;;;;;;;2.20;0.70;;;;;;;10.21;99.64;98034.80;214342;1312;139131;-75
2023/01/05 11:18:50;;;;;;;1.40;0.80;;;;;;;10.16;98.33;98039.98;214031;1296;138869;-75
2023/01/05 11:23:54;;;;;;;2.40;0.80;;;;;;;10.08;97.34;98038.40;214398;1284;24072;-76
2023/01/05 11:28:56;;;;;;;2.10;0.90;;;;;;;10.00;95.90;98038.03;214220;1300;138512;-76
2023/01/05 11:34:04;;;;;;;1.90;0.70;;;;;;;10.10;96.61;98035.94;214327;1281;138411;-75
2023/01/05 11:39:18;;;;;;;5.70;0.80;;;;;;;10.18;95.95;98036.67;214528;1284;138991;-78
2023/01/05 11:44:23;;;;;;;1.30;0.60;;;;;;;10.33;95.18;98044.21;214375;1287;139003;-74
2023/01/05 11:49:25;;;;;;;2.10;0.80;;;;;;;10.48;94.70;98041.34;214536;1284;139468;-74
2023/01/05 11:54:33;;;;;;;3.30;0.90;;;;;;;10.68;94.39;98043.69;214675;1288;22558;-74
2023/01/05 11:59:36;;;;;;;2.20;0.90;;;;;;;10.80;93.60;98037.71;214507;1293;25367;-75
2023/01/05 12:04:41;;;;;;;3.60;0.80;;;;;;;10.79;92.58;98043.58;214192;1287;138442;-73
2023/01/05 12:09:49;;;;;;;3.10;1.00;;;;;;;10.71;92.28;98044.78;214405;1284;138940;-73
2023/01/05 12:15:03;;;;;;;2.80;1.20;;;;;;;10.56;92.09;98048.77;214441;1289;139062;-73
2023/01/05 12:20:23;;;;;;;4.40;1.20;;;;;;;10.36;91.67;98054.20;214472;1284;138696;-73
2023/01/05 12:25:34;;;;;;;1.60;0.90;;;;;;;10.19;91.18;98056.14;214244;1284;138687;-74
2023/01/05 12:31:03;;;;;;;2.10;0.80;;;;;;;10.02;91.39;98050.14;214275;1284;140942;-73
2023/01/05 12:36:59;;;;;;;2.70;1.00;;;;;;;9.94;91.37;98051.17;214574;1285;24595;-73
2023/01/05 12:42:16;;;;;;;1.60;0.80;;;;;;;9.89;91.96;98066.42;214441;1288;22425;-75
2023/01/05 12:47:35;;;;;;;2.30;0.70;;;;;;;9.87;91.92;98063.86;214426;1288;138098;-75
2023/01/05 12:52:45;;;;;;;1.60;0.90;;;;;;;9.82;91.10;98059.40;213963;1287;138357;-85
2023/01/05 12:57:53;;;;;;;1.10;0.50;;;;;;;9.81;90.38;98068.41;213773;1290;138743;-74
2023/01/05 13:03:00;;;;;;;2.10;0.70;;;;;;;9.78;90.33;98076.98;214287;1288;138529;-74
2023/01/05 13:08:17;;;;;;;1.70;0.70;;;;;;;9.71;90.26;98081.80;214670;1284;138525;-74
2023/01/05 13:13:27;;;;;;;2.20;0.60;;;;;;;9.52;90.61;98081.46;214188;1286;138465;-74
2023/01/05 13:18:33;;;;;;;1.30;0.90;;;;;;;9.28;91.04;98082.09;214429;1281;25343;-73
2023/01/05 13:23:52;;;;;;;2.30;0.80;;;;;;;9.19;91.39;98081.80;214363;1289;138165;-75
2023/01/05 13:28:54;;;;;;;1.70;1.00;;;;;;;9.29;91.70;98084.48;214506;1287;138329;-75
2023/01/05 13:34:14;;;;;;;1.70;0.80;;;;;;;9.34;91.36;98091.55;214604;1287;138862;-75
2023/01/05 13:39:33;;;;;;;;;;;;;;;9.35;90.98;98090.14;214717;1281;138974;-74
2023/01/05 13:45:06;;;;;;;2.00;0.90;;;;;;;9.33;90.93;98099.64;214327;1284;127445;-74
2023/01/05 13:50:26;;;;;;;2.10;1.10;;;;;;;9.37;91.33;98093.79;214282;1288;138638;-74
2023/01/05 13:55:29;;;;;;;;;;;;;;;9.34;91.74;98123.41;214467;1285;138410;-74
2023/01/05 14:00:40;;;;;;;3.50;1.40;;;;;;;9.20;92.05;98114.21;214288;1287;23099;-74
2023/01/05 14:05:53;;;;;;;2.60;1.50;;;;;;;9.03;92.45;98148.30;214278;1310;22749;-74
2023/01/05 14:11:15;;;;;;;5.60;1.60;;;;;;;8.72;92.48;98165.11;214327;1288;138184;-74
2023/01/05 14:16:32;;;;;;;2.10;1.40;;;;;;;8.35;93.43;98161.19;214495;1284;138740;-73
2023/01/05 14:21:50;;;;;;;3.50;2.10;;;;;;;8.21;94.00;98158.67;214299;1288;138542;-73
2023/01/05 14:27:01;;;;;;;3.40;1.60;;;;;;;8.25;94.21;98160.05;214339;1284;138289;-74
2023/01/05 14:32:06;;;;;;;3.30;1.70;;;;;;;8.34;94.66;98159.01;214404;1282;138537;-74
2023/01/05 14:37:28;;;;;;;1.70;1.40;;;;;;;8.37;94.38;98157.63;214777;1288;138357;-74
2023/01/05 14:42:34;;;;;;;2.70;0.90;;;;;;;8.42;93.63;98152.61;214371;1295;22629;-75
2023/01/05 14:47:41;;;;;;;2.10;0.90;;;;;;;8.48;94.23;98161.89;214438;1286;24419;-76
2023/01/05 14:53:03;;;;;;;2.10;1.10;;;;;;;8.46;93.58;98182.37;214304;1291;138158;-74
2023/01/05 14:58:12;;;;;;;2.60;1.30;;;;;;;8.38;93.82;98185.55;214314;1281;138281;-74
2023/01/05 15:03:32;;;;;;;2.70;1.40;;;;;;;8.24;93.06;98184.17;214663;1287;22552;-75
2023/01/05 15:08:49;;;;;;;2.00;0.90;;;;;;;8.09;92.44;98177.55;214208;1310;22496;-75
2023/01/05 15:14:37;;;;;;;1.70;0.90;;;;;;;8.00;91.41;98172.70;214141;1310;23276;-75
2023/01/05 15:20:06;;;;;;;2.60;0.80;;;;;;;7.91;91.15;98178.61;214223;1310;24363;-75
2023/01/05 15:25:34;;;;;;;1.60;1.10;;;;;;;7.82;90.96;98182.77;214005;1310;25310;-75
2023/01/05 15:31:10;;;;;;;2.50;1.70;;;;;;;7.70;91.22;98185.62;214261;1310;22555;-75
2023/01/05 15:36:23;;;;;;;3.60;1.90;;;;;;;7.57;91.81;98202.34;214220;1310;22464;-75
2023/01/05 15:41:27;;;;;;;3.40;1.40;;;;;;;7.51;92.30;98210.83;213988;1310;22507;-75
2023/01/05 15:46:32;;;;;;;5.10;1.80;;;;;;;7.49;92.60;98215.11;213807;1310;22527;-74
2023/01/05 15:51:33;;;;;;;3.20;1.70;;;;;;;7.51;93.11;98214.72;214048;1310;22485;-75
2023/01/05 15:56:41;;;;;;;3.40;1.20;;;;;;;7.57;92.75;98228.45;214066;1310;22480;-75
2023/01/05 16:01:43;;;;;;;4.00;2.20;;;;;;;7.63;92.80;98228.45;214022;1309;22500;-74
2023/01/05 16:07:03;;;;;;;3.60;1.70;;;;;;;7.70;92.64;98236.06;214041;1310;22464;-75
2023/01/05 16:12:23;;;;;;;2.70;1.20;;;;;;;7.75;92.21;98234.05;214113;1310;24068;-77
2023/01/05 16:17:28;;;;;;;3.40;1.50;;;;;;;7.77;92.29;98241.23;214229;1310;24292;-76
2023/01/05 16:22:48;;;;;;;1.80;1.10;;;;;;;7.79;92.46;98251.39;214145;1310;25272;-74
2023/01/05 16:28:04;;;;;;;2.50;1.40;;;;;;;7.80;91.62;98262.42;214045;1310;22523;-75
2023/01/05 16:33:13;;;;;;;2.20;1.20;;;;;;;7.80;91.49;98280.17;214164;1310;25231;-75
2023/01/05 16:38:36;;;;;;;2.80;1.00;;;;;;;7.78;90.97;98292.14;214020;1310;24278;-75
2023/01/05 16:43:53;;;;;;;3.20;1.60;;;;;;;7.68;90.74;98321.34;214022;1307;22455;-75
2023/01/05 16:49:20;;;;;;;3.00;1.40;;;;;;;7.53;91.78;98342.80;214057;1310;22481;-75
2023/01/05 16:54:39;;;;;;;1.20;1.00;;;;;;;7.19;92.63;98352.84;214154;1310;25413;-75
2023/01/05 16:59:45;;;;;;;1.20;0.80;;;;;;;6.91;93.07;98354.75;213912;1310;26374;-75
2023/01/05 17:04:47;;;;;;;2.80;1.20;;;;;;;6.77;93.19;98359.77;214119;1299;22464;-75
2023/01/05 17:09:49;;;;;;;2.50;1.70;;;;;;;6.72;93.44;98364.84;214123;1310;25385;-75
2023/01/05 17:14:51;;;;;;;2.80;1.30;;;;;;;6.71;93.76;98370.70;214131;1310;25374;-75
2023/01/05 17:19:53;;;;;;;2.20;1.20;;;;;;;6.75;93.74;98384.05;214170;1310;22468;-75
2023/01/05 17:24:55;;;;;;;3.90;1.10;;;;;;;6.80;93.05;98386.48;214040;1310;22479;-75
2023/01/05 17:29:57;;;;;;;5.00;1.50;;;;;;;6.88;92.87;98389.96;214005;1310;25259;-74
2023/01/05 17:34:58;;;;;;;2.20;1.10;;;;;;;6.96;92.36;98399.73;214170;1310;22625;-75
2023/01/05 17:40:00;;;;;;;2.50;1.10;;;;;;;7.03;91.69;98405.77;214143;1310;25383;-75
2023/01/05 17:45:02;;;;;;;1.50;0.90;;;;;;;7.10;90.66;98422.30;214070;1310;22490;-75
2023/01/05 17:50:05;;;;;;;2.20;0.70;;;;;;;7.16;89.76;98435.96;214048;1310;22621;-75
2023/01/05 17:55:07;;;;;;;0.70;0.60;;;;;;;7.19;88.71;98447.30;214000;1310;22518;-74
2023/01/05 18:00:12;;;;;;;4.40;1.10;;;;;;;7.22;87.43;98452.62;213944;1310;22485;-74
2023/01/05 18:05:14;;;;;;;1.00;0.50;;;;;;;7.23;87.16;98453.23;214274;1310;24300;-75
2023/01/05 18:10:19;;;;;;;0.90;0.50;;;;;;;7.23;86.12;98455.96;214063;1310;23374;-75
2023/01/05 18:15:21;;;;;;;1.00;0.60;;;;;;;7.23;86.22;98469.06;214178;1309;22601;-74
2023/01/05 18:20:26;;;;;;;1.70;0.40;;;;;;;7.23;85.63;98473.97;214184;1306;26334;-75
2023/01/05 18:25:28;;;;;;;1.50;0.70;;;;;;;7.22;85.78;98492.05;214166;1310;24347;-75
2023/01/05 18:30:29;;;;;;;1.90;0.50;;;;;;;7.22;85.49;98496.48;213981;1310;24564;-75
2023/01/05 18:35:31;;;;;;;2.80;1.00;;;;;;;7.21;85.62;98501.22;214170;1310;22597;-75
2023/01/05 18:40:35;;;;;;;1.80;0.70;;;;;;;7.18;85.41;98497.44;214235;1298;23789;-76
2023/01/05 18:45:37;;;;;;;1.60;0.60;;;;;;;7.16;85.36;98515.56;214120;1310;25230;-74
2023/01/05 18:50:43;;;;;;;3.80;0.90;;;;;;;7.13;85.41;98521.54;214279;1304;22477;-75
2023/01/05 18:55:45;;;;;;;7.30;1.00;;;;;;;7.12;85.74;98531.35;214182;1310;22475;-73
2023/01/05 19:00:47;;;;;;;0.80;0.60;;;;;;;7.12;85.54;98542.06;213981;1310;22472;-75
2023/01/05 19:05:49;;;;;;;2.80;0.60;;;;;;;7.13;85.23;98542.85;214053;1310;22508;-75
2023/01/05 19:10:51;;;;;;;2.00;0.60;;;;;;;7.14;85.36;98553.71;214180;1310;22639;-75
2023/01/05 19:15:53;;;;;;;2.10;0.80;;;;;;;7.11;85.22;98564.75;214239;1310;22536;-74
2023/01/05 19:20:56;;;;;;;1.30;0.70;;;;;;;7.08;85.24;98571.69;213982;1310;23765;-75
2023/01/05 19:26:01;;;;;;;2.10;0.90;;;;;;;7.09;85.64;98581.27;214165;1310;22484;-74
2023/01/05 19:31:11;;;;;;;0.70;0.30;;;;;;;7.10;85.00;98583.41;214048;1310;22470;-75
2023/01/05 19:36:16;;;;;;;2.60;0.80;;;;;;;7.10;84.56;98582.77;214085;1310;25323;-75
2023/01/05 19:41:21;;;;;;;2.10;0.90;;;;;;;7.11;84.73;98589.27;214019;1310;22476;-74
2023/01/05 19:46:25;;;;;;;1.40;0.90;;;;;;;7.10;85.06;98593.63;214142;1310;25331;-74
2023/01/05 19:51:28;;;;;;;2.00;1.00;;;;;;;7.08;85.11;98597.67;213957;1310;24411;-74
2023/01/05 19:56:33;;;;;;;4.90;1.00;;;;;;;7.07;85.25;98604.67;214186;1310;25466;-74
2023/01/05 20:01:36;;;;;;;1.70;0.60;;;;;;;7.05;85.40;98615.16;214010;1310;25845;-75
2023/01/05 20:06:40;;;;;;;1.40;0.50;;;;;;;7.03;85.22;98617.35;214204;1310;147670;-73
2023/01/05 20:11:46;;;;;;;2.60;0.60;;;;;;;6.99;85.35;98633.66;214176;1310;25305;-75
2023/01/05 20:16:58;;;;;;;5.60;1.60;;;;;;;6.82;87.01;98642.45;214161;1310;24779;-75
2023/01/05 20:22:02;;;;;;;2.10;1.00;;;;;;;6.44;88.79;98658.44;214156;1310;24333;-75
2023/01/05 20:27:08;;;;;;;7.00;1.80;;;;;;;6.05;89.75;98661.80;213971;1310;24415;-75
2023/01/05 20:32:19;;;;;;;4.00;1.40;;;;;;;5.80;91.03;98670.02;214005;1310;25673;-76
2023/01/05 20:37:22;;;;;;;6.50;1.90;;;;;;;5.63;92.29;98676.52;214234;1310;22536;-77
2023/01/05 20:42:29;;;;;;;3.50;1.80;;;;;;;5.47;92.65;98686.88;213999;1310;22493;-76
2023/01/05 20:47:31;;;;;;;6.30;2.20;;;;;;;5.35;93.51;98688.81;213962;1310;24284;-77
2023/01/05 20:52:48;;;;;;;3.50;1.80;;;;;;;5.22;94.31;98692.81;214009;1310;23906;-77
2023/01/05 20:57:51;;;;;;;2.50;1.80;;;;;;;5.11;95.23;98716.00;214009;1310;22524;-78
2023/01/05 21:02:52;;;;;;;4.10;1.90;;;;;;;5.01;95.69;98731.05;214098;1310;22534;-79
2023/01/05 21:07:54;;;;;;;5.40;2.30;;;;;;;4.92;96.19;98727.35;214145;1307;22672;-78
2023/01/05 21:12:58;;;;;;;4.50;2.10;;;;;;;4.83;96.30;98737.20;214070;1310;24291;-78
2023/01/05 21:18:20;;;;;;;5.10;2.20;;;;;;;4.77;96.57;98749.20;214224;1305;22488;-77
2023/01/05 21:23:22;;;;;;;6.00;2.70;;;;;;;4.75;97.12;98754.27;214141;1310;24286;-77
2023/01/05 21:28:25;;;;;;;4.60;2.60;;;;;;;4.76;97.21;98761.65;214083;1307;22958;-77
2023/01/05 21:33:30;;;;;;;9.20;2.80;;;;;;;4.74;97.80;98760.64;214115;1311;22494;-77
2023/01/05 21:38:32;;;;;;;3.40;2.30;;;;;;;4.73;97.91;98766.14;213960;1310;25297;-77
2023/01/05 21:43:55;;;;;;;4.60;2.00;;;;;;;4.72;98.22;98767.61;214256;1310;22496;-76
2023/01/05 21:48:57;;;;;;;3.80;1.60;;;;;;;4.68;98.21;98772.78;214203;1310;25462;-76
2023/01/05 21:59:19;;;;;;;3.20;1.60;;;;;;;4.61;98.08;98790.59;214157;1310;22730;-77
2023/01/05 22:04:21;;;;;;;3.40;1.00;;;;;;;4.56;98.25;98797.33;213945;1310;25309;-76
2023/01/05 22:09:28;;;;;;;1.80;1.10;;;;;;;4.51;97.94;98806.66;214146;1307;22487;-76
2023/01/05 22:14:33;;;;;;;2.70;1.40;;;;;;;4.45;97.80;98820.59;214054;1306;22473;-76
2023/01/05 22:19:36;;;;;;;1.30;1.00;;;;;;;4.37;97.61;98826.32;214076;1310;22456;-76
2023/01/05 22:24:37;;;;;;;3.70;1.40;;;;;;;4.28;97.82;98841.17;214003;1304;22942;-76
2023/01/05 22:29:39;;;;;;;0.70;0.70;;;;;;;4.22;97.43;98847.83;214104;1310;25285;-76
2023/01/05 22:34:45;;;;;;;2.60;0.90;;;;;;;4.18;97.33;98857.00;214099;1310;22480;-75
2023/01/05 22:39:47;;;;;;;3.00;0.70;;;;;;;4.15;97.23;98861.79;213868;1302;24546;-76
2023/01/05 22:44:49;;;;;;;1.80;0.90;;;;;;;4.12;97.12;98873.15;214006;1308;22725;-76
2023/01/05 22:49:51;;;;;;;8.10;2.00;;;;;;;4.10;97.07;98890.04;213970;1310;22517;-75
2023/01/05 22:54:52;;;;;;;2.80;0.90;;;;;;;4.09;97.07;98898.83;214139;1310;25265;-76
2023/01/05 22:59:54;;;;;;;2.40;1.50;;;;;;;4.09;96.92;98906.79;214125;1309;22481;-75
2023/01/05 23:04:56;;;;;;;3.70;1.10;;;;;;;4.10;96.82;98910.23;213930;1310;22504;-76
2023/01/05 23:09:58;;;;;;;3.20;1.10;;;;;;;4.08;96.65;98912.23;213924;1310;22481;-76
2023/01/05 23:15:00;;;;;;;2.60;1.00;;;;;;;4.08;96.35;98916.72;214005;1309;22482;-75
2023/01/05 23:20:02;;;;;;;2.00;1.10;;;;;;;4.09;96.09;98925.64;214004;1310;22609;-75
2023/01/05 23:25:04;;;;;;;2.60;0.70;;;;;;;4.09;95.68;98941.71;214119;1310;24355;-76
2023/01/05 23:30:07;;;;;;;4.20;1.00;;;;;;;4.08;95.81;98945.46;213966;1310;23198;-74
2023/01/05 23:35:08;;;;;;;1.80;1.00;;;;;;;4.09;95.69;98958.83;213837;1310;22612;-75
2023/01/05 23:40:10;;;;;;;1.10;0.90;;;;;;;4.08;95.29;98967.73;214114;1297;24255;-76
2023/01/05 23:45:13;;;;;;;3.10;1.10;;;;;;;4.09;95.28;98970.09;214139;1309;25443;-74
2023/01/05 23:50:15;;;;;;;2.70;1.30;;;;;;;4.08;95.12;98976.85;214122;1304;22437;-75
2023/01/05 23:55:16;;;;;;;2.10;1.00;;;;;;;4.06;94.97;98984.73;213998;1310;23395;-75
